Gastenboek Links Sitemap Wie is nu online Nieuw op Venhuizerweer Venhuizerweer voor mobiel

AMSTERDAM SCHIPHOL:
Amsterdam Airport Schiphol, Netherlands (EHAM) 52-18N 004-46E -2M
Oct 20, 2017 - 10:55 AM EDT / 2017.10.20 1455 UTC
Wind: from the SW (220 degrees) at 21 MPH (18 KT):0
Visibility: 4 mile(s):0
Sky conditions: mostly cloudy
Weather: light rain showers; Cumulonimbus clouds observed
Temperature: 57 F (14 C)
Dew Point: 53 F (12 C)
Relative Humidity: 87%
Pressure (altimeter): 29.71 in. Hg (1006 hPa)
ob: EHAM 201455Z 22018KT 7000 -SHRA FEW012 FEW016CB BKN019 14/12 Q1006 BECMG 9999 NSW
cycle: 15
DEELEN:
Deelen, Netherlands (EHDL) 52-04N 005-53E 52M
Oct 20, 2017 - 10:55 AM EDT / 2017.10.20 1455 UTC
Wind: from the SSW (210 degrees) at 21 MPH (18 KT) (direction variable):0
Visibility: greater than 7 mile(s):0
Sky conditions: overcast
Weather: drizzle
Temperature: 55 F (13 C)
Dew Point: 50 F (10 C)
Relative Humidity: 81%
Pressure (altimeter): 29.77 in. Hg (1008 hPa)
ob: EHDL 201455Z AUTO 21018KT 160V260 9999 DZ OVC015 13/10 Q1008 BLACKWHT
cycle: 15
DE KOOY:
De Kooy, Netherlands (EHKD) 52-55N 004-47E 14M
Oct 20, 2017 - 10:55 AM EDT / 2017.10.20 1455 UTC
Wind: from the WSW (240 degrees) at 18 MPH (16 KT) (direction variable):0
Visibility: greater than 7 mile(s):0
Sky conditions: overcast
Weather: Cumulonimbus clouds observed
Temperature: 57 F (14 C)
Dew Point: 53 F (12 C)
Relative Humidity: 87%
Pressure (altimeter): 29.65 in. Hg (1004 hPa)
ob: EHKD 201455Z AUTO 24016KT 210V270 9999 FEW013 FEW015CB BKN020 OVC029 14/12 Q1004 WHT 20015G25KT 9999 SCT015 BKN018 TEMPO 25020G30KT 4000 -SHRA SCT007 SCT012CB BKN015
cycle: 15
EELDE:
Groningen Airport Eelde, Netherlands (EHGG) 53-08N 006-35E 4M
Oct 20, 2017 - 10:55 AM EDT / 2017.10.20 1455 UTC
Wind: from the S (190 degrees) at 15 MPH (13 KT) (direction variable):0
Visibility: greater than 7 mile(s):0
Sky conditions: overcast
Weather: Cumulonimbus clouds observed
Temperature: 55 F (13 C)
Dew Point: 51 F (11 C)
Relative Humidity: 87%
Pressure (altimeter): 29.71 in. Hg (1006 hPa)
ob: EHGG 201455Z AUTO 19013KT 160V220 9999 FEW013 BKN016 OVC020 13/11 Q1006 TEMPO 4000 SHRA BKN012 SCT020CB
cycle: 15
EINDHOVEN:
Eindhoven, Netherlands (EHEH) 51-27N 005-25E 28M
Oct 20, 2017 - 10:55 AM EDT / 2017.10.20 1455 UTC
Wind: from the SW (220 degrees) at 21 MPH (18 KT) (direction variable):0
Visibility: greater than 7 mile(s):0
Sky conditions: overcast
Temperature: 57 F (14 C)
Dew Point: 48 F (9 C)
Relative Humidity: 71%
Pressure (altimeter): 29.83 in. Hg (1010 hPa)
ob: EHEH 201455Z AUTO 22018KT 190V250 9999 SCT023 BKN027 OVC031 14/09 Q1010 WHT 21015G28KT 9999 BKN025
cycle: 15
GILZE-RIJEN:
Gilze-Rijen, Netherlands (EHGR) 51-34N 004-56E 24M
Oct 20, 2017 - 10:55 AM EDT / 2017.10.20 1455 UTC
Wind: from the SW (220 degrees) at 12 MPH (10 KT) (direction variable):0
Visibility: greater than 7 mile(s):0
Sky conditions: overcast
Temperature: 55 F (13 C)
Dew Point: 51 F (11 C)
Relative Humidity: 87%
Pressure (altimeter): 29.80 in. Hg (1009 hPa)
ob: EHGR 201455Z AUTO 22010KT 180V280 9999 FEW014 BKN016 OVC020 13/11 Q1009 WHT
cycle: 15
LEEUWARDEN:
Leeuwarden, Netherlands (EHLW) 53-13N 005-46E 11M
Oct 20, 2017 - 10:55 AM EDT / 2017.10.20 1455 UTC
Wind: from the S (190 degrees) at 17 MPH (15 KT) gusting to 29 MPH (25 KT) (direction variable):0
Visibility: greater than 7 mile(s):0
Sky conditions: mostly cloudy
Weather: light rain; Cumulonimbus clouds observed
Temperature: 55 F (13 C)
Dew Point: 53 F (12 C)
Relative Humidity: 93%
Pressure (altimeter): 29.68 in. Hg (1005 hPa)
ob: EHLW 201455Z AUTO 19015G25KT 150V220 9999 -RA FEW005 SCT008 BKN011 FEW015CB 13/12 Q1005 GRN
cycle: 15
MAASTRICHT:
Maastricht Airport Zuid Limburg, Netherlands (EHBK) 50-55N 005-47E 116M
Oct 20, 2017 - 10:55 AM EDT / 2017.10.20 1455 UTC
Wind: from the SW (220 degrees) at 21 MPH (18 KT) (direction variable):0
Visibility: greater than 7 mile(s):0
Sky conditions: mostly cloudy
Temperature: 57 F (14 C)
Dew Point: 48 F (9 C)
Relative Humidity: 71%
Pressure (altimeter): 29.85 in. Hg (1011 hPa)
ob: EHBK 201455Z AUTO 22018KT 180V250 9999 BKN041 BKN047 14/09 Q1011 NOSIG
cycle: 15
ROTTERDAM ZESTIENHOVEN:
Rotterdam Airport Zestienhoven, Netherlands (EHRD) 51-57N 004-27E -4M
Oct 20, 2017 - 10:55 AM EDT / 2017.10.20 1455 UTC
Wind: from the SW (220 degrees) at 21 MPH (18 KT):0
Visibility: greater than 7 mile(s):0
Sky conditions: mostly cloudy
Weather: Cumulonimbus clouds observed
Temperature: 55 F (13 C)
Dew Point: 53 F (12 C)
Relative Humidity: 93%
Pressure (altimeter): 29.74 in. Hg (1007 hPa)
ob: EHRD 201455Z AUTO 22018KT 9999 FEW011 SCT013 BKN018 13/12 Q1007 TEMPO 7000 -SHRA FEW015CB
cycle: 15
SOESTERBERG:
Soesterberg, Netherlands (EHSB) 52-08N 005-17E 25M
Nov 20, 2008 - 04:25 AM EST / 2008.11.20 0925 UTC
Wind: from the W (280 degrees) at 16 MPH (14 KT):0
Visibility: greater than 7 mile(s):0
Temperature: 51 F (11 C)
Dew Point: 48 F (9 C)
Relative Humidity: 87%
Pressure (altimeter): 29.83 in. Hg (1010 hPa)
ob: EHSB 200925Z AUTO 28014KT 9999 // 11/09 Q1010
cycle: 9
TWENTE:
Twenthe, Netherlands (EHTW) 52-16N 006-54E 57M
Apr 07, 2008 - 08:25 AM EDT / 2008.04.07 1225 UTC
Wind: from the N (010 degrees) at 7 MPH (6 KT):0
Sky conditions: mostly cloudy
Temperature: 46 F (8 C)
Dew Point: 24 F (-4 C)
Relative Humidity: 42%
Pressure (altimeter): 29.59 in. Hg (1002 hPa)
ob: EHTW 071225Z AUTO 01006KT //// // BKN200/// 08/M04 Q1002 RE//
cycle: 12
VALKENBURG:
Valkenburg, Netherlands (EHVB) 52-11N 004-25E 2M
Apr 01, 2010 - 03:55 AM EDT / 2010.04.01 0755 UTC
Wind: from the WSW (250 degrees) at 20 MPH (17 KT):0
Sky conditions: mostly cloudy
Temperature: 41 F (5 C)
Dew Point: 33 F (1 C)
Relative Humidity: 75%
Pressure (altimeter): 29.62 in. Hg (1003 hPa)
ob: EHVB 010755Z AUTO 25017KT 9999NDV FEW021/// BKN037/// 05/01 Q1003 BLU
cycle: 8
VLIELAND:
Vlieland, Netherlands (EHVL) 53-15N 004-55E 12M
Oct 20, 2017 - 10:55 AM EDT / 2017.10.20 1455 UTC
Wind: from the WSW (240 degrees) at 28 MPH (24 KT):0
Visibility: greater than 7 mile(s):0
Sky conditions: mostly cloudy
Weather: Cumulonimbus clouds observed
Temperature: 57 F (14 C)
Dew Point: 55 F (13 C)
Relative Humidity: 93%
Pressure (altimeter): 29.62 in. Hg (1003 hPa)
ob: EHVL 201455Z AUTO 24024KT 9999 FEW011 FEW015CB SCT016 BKN024 14/13 Q1003 RERA WHT
cycle: 15
VOLKEL:
Volkel, Netherlands (EHVK) 51-39N 005-42E 21M
Oct 20, 2017 - 10:55 AM EDT / 2017.10.20 1455 UTC
Wind: from the SW (220 degrees) at 25 MPH (22 KT) (direction variable):0
Visibility: greater than 7 mile(s):0
Sky conditions: mostly cloudy
Temperature: 55 F (13 C)
Dew Point: 50 F (10 C)
Relative Humidity: 81%
Pressure (altimeter): 29.80 in. Hg (1009 hPa)
ob: EHVK 201455Z AUTO 22022KT 200V260 9999 FEW019 SCT026 BKN029 13/10 Q1009 BLU
cycle: 15
WOENSDRECHT:
Woensdrecht, Netherlands (EHWO) 51-27N 004-20E 17M
Oct 20, 2017 - 10:55 AM EDT / 2017.10.20 1455 UTC
Wind: from the SW (220 degrees) at 16 MPH (14 KT) (direction variable):0
Visibility: greater than 7 mile(s):0
Sky conditions: overcast
Temperature: 57 F (14 C)
Dew Point: 50 F (10 C)
Relative Humidity: 76%
Pressure (altimeter): 29.80 in. Hg (1009 hPa)
ob: EHWO 201455Z AUTO 22014KT 190V270 9999 OVC026 14/10 Q1009 BLU
cycle: 15
Copyright © 2005 - 2017 Venhuizerweer - Alle Rechten Voorbehouden


54.92.141.211